Time;durP1;ratioP1;P1;durP2;ratioP2;P2;SDS_P1;SDS_P2;PMS_P1;PMS_P2;Temp;Humidity;BMP_temperature;BMP_pressure;BME280_temperature;BME280_humidity;BME280_pressure;Samples;Min_cycle;Max_cycle;Signal;HPM_P1;HPM_P2
2023/11/23 00:02:01;;;;;;;;;;;8.90;77.20;;;;;;4994587;28;86907;-43
2023/11/23 00:04:26;;;;;;;;;;;8.90;77.20;;;;;;5003346;28;87927;-43
2023/11/23 00:06:52;;;;;;;;;;;8.90;77.20;;;;;;4996155;28;88653;-44
2023/11/23 00:09:19;;;;;;;;;;;8.90;77.20;;;;;;5002086;28;87465;-45
2023/11/23 00:11:44;;;;;;;;;;;8.90;77.20;;;;;;5003521;28;89160;-44
2023/11/23 00:14:10;;;;;;;;;;;8.90;77.20;;;;;;5006166;28;87279;-44
2023/11/23 00:16:36;;;;;;;;;;;8.90;77.20;;;;;;4997366;28;86979;-43
2023/11/23 00:19:01;;;;;;;;;;;8.90;77.00;;;;;;5000236;28;88819;-43
2023/11/23 00:21:27;;;;;;;;;;;8.90;77.00;;;;;;5001700;28;87036;-45
2023/11/23 00:23:53;;;;;;;;;;;8.90;77.10;;;;;;5003182;28;87775;-44
2023/11/23 00:26:18;;;;;;;;;;;8.90;77.00;;;;;;5002238;28;88570;-43
2023/11/23 00:28:44;;;;;;;;;;;8.90;77.20;;;;;;5007348;28;86302;-44
2023/11/23 00:31:10;;;;;;;;;;;8.90;77.00;;;;;;4999924;28;87133;-43
2023/11/23 00:33:35;;;;;;;;;;;8.90;77.10;;;;;;5004928;28;87513;-45
2023/11/23 00:36:02;;;;;;;;;;;8.90;77.10;;;;;;4999824;28;88016;-44
2023/11/23 00:38:28;;;;;;;;;;;8.80;77.30;;;;;;5000306;28;87616;-44
2023/11/23 00:40:53;;;;;;;;;;;8.90;77.20;;;;;;5000217;28;86996;-44
2023/11/23 00:43:19;;;;;;;;;;;8.80;77.00;;;;;;5000205;28;87759;-44
2023/11/23 00:45:44;;;;;;;;;;;8.90;77.10;;;;;;5000993;28;87502;-44
2023/11/23 00:48:10;;;;;;;;;;;8.90;77.10;;;;;;5000557;28;87391;-43
2023/11/23 00:50:36;;;;;;;;;;;8.90;77.10;;;;;;4998045;28;87058;-44
2023/11/23 00:53:01;;;;;;;;;;;8.90;77.10;;;;;;5002804;28;87141;-44
2023/11/23 00:55:27;;;;;;;;;;;8.90;77.00;;;;;;5001048;28;87054;-44
2023/11/23 00:57:52;;;;;;;;;;;8.80;77.00;;;;;;5003895;28;87550;-44
2023/11/23 01:00:18;;;;;;;;;;;8.90;77.20;;;;;;4999784;28;88017;-44
2023/11/23 01:02:45;;;;;;;;;;;8.90;77.20;;;;;;4997812;28;86993;-45
2023/11/23 01:05:11;;;;;;;;;;;8.90;77.10;;;;;;4999048;28;88553;-43
2023/11/23 01:07:38;;;;;;;;;;;8.80;77.10;;;;;;5000652;28;86989;-44
2023/11/23 01:10:07;;;;;;;;;;;8.90;77.10;;;;;;4999835;28;87886;-44
2023/11/23 01:12:32;;;;;;;;;;;8.80;77.00;;;;;;4996808;28;87606;-44
2023/11/23 01:14:58;;;;;;;;;;;8.80;77.00;;;;;;5000822;28;87129;-44
2023/11/23 01:17:23;;;;;;;;;;;8.90;77.20;;;;;;5002529;28;86803;-45
2023/11/23 01:19:49;;;;;;;;;;;8.80;77.10;;;;;;4999505;28;87094;-44
2023/11/23 01:22:14;;;;;;;;;;;8.90;77.10;;;;;;5006013;28;88051;-45
2023/11/23 01:24:40;;;;;;;;;;;8.80;77.10;;;;;;4999771;28;88367;-44
2023/11/23 01:27:05;;;;;;;;;;;8.90;77.30;;;;;;4999573;28;86861;-44
2023/11/23 01:29:31;;;;;;;;;;;8.80;77.20;;;;;;4996695;28;86921;-44
2023/11/23 01:31:57;;;;;;;;;;;8.80;77.20;;;;;;4995623;28;87607;-44
2023/11/23 01:34:23;;;;;;;;;;;8.80;77.00;;;;;;5002251;28;86976;-44
2023/11/23 01:36:49;;;;;;;;;;;8.90;77.20;;;;;;5003561;28;86984;-44
2023/11/23 01:39:15;;;;;;;;;;;8.90;77.20;;;;;;5002417;28;87499;-43
2023/11/23 01:41:41;;;;;;;;;;;8.80;77.10;;;;;;4999631;28;87890;-45
2023/11/23 01:44:06;;;;;;;;;;;8.80;77.20;;;;;;4999410;28;87439;-44
2023/11/23 01:46:32;;;;;;;;;;;8.80;77.10;;;;;;5003037;28;86999;-44
2023/11/23 01:48:59;;;;;;;;;;;8.80;77.20;;;;;;4999244;28;88480;-44
2023/11/23 01:51:24;;;;;;;;;;;8.80;77.20;;;;;;4995735;28;88823;-44
2023/11/23 01:53:51;;;;;;;;;;;8.80;77.20;;;;;;5000049;28;86770;-44
2023/11/23 01:56:17;;;;;;;;;;;8.80;77.10;;;;;;4997931;28;87013;-44
2023/11/23 01:58:43;;;;;;;;;;;8.80;77.10;;;;;;4999318;28;88402;-43
2023/11/23 02:01:09;;;;;;;;;;;8.80;77.40;;;;;;5009265;28;87046;-45
2023/11/23 02:03:34;;;;;;;;;;;8.80;77.30;;;;;;5003685;28;87348;-44
2023/11/23 02:06:00;;;;;;;;;;;8.80;77.10;;;;;;5001490;28;86281;-44
2023/11/23 02:08:25;;;;;;;;;;;8.80;77.10;;;;;;5001378;28;86994;-44
2023/11/23 02:10:51;;;;;;;;;;;8.80;77.30;;;;;;4996835;28;87596;-43
2023/11/23 02:13:17;;;;;;;;;;;8.80;77.10;;;;;;4997445;28;87888;-43
2023/11/23 02:15:42;;;;;;;;;;;8.80;77.10;;;;;;4995112;28;87706;-43
2023/11/23 02:18:08;;;;;;;;;;;8.80;77.10;;;;;;4999214;28;87446;-44
2023/11/23 02:20:34;;;;;;;;;;;8.80;77.20;;;;;;4999073;28;86988;-44
2023/11/23 02:22:59;;;;;;;;;;;8.80;77.10;;;;;;4998259;28;87046;-44
2023/11/23 02:25:25;;;;;;;;;;;8.80;77.10;;;;;;4999005;28;87059;-44
2023/11/23 02:27:52;;;;;;;;;;;8.80;77.20;;;;;;4998639;28;86955;-43
2023/11/23 02:30:17;;;;;;;;;;;8.80;77.20;;;;;;4999218;28;87669;-44
2023/11/23 02:32:45;;;;;;;;;;;8.80;77.10;;;;;;4995440;28;87065;-43
2023/11/23 02:35:12;;;;;;;;;;;8.80;77.20;;;;;;4998892;28;88235;-44
2023/11/23 02:37:41;;;;;;;;;;;8.80;77.10;;;;;;4994426;28;89397;-44
2023/11/23 02:40:07;;;;;;;;;;;8.80;77.20;;;;;;4999311;28;87095;-44
2023/11/23 02:42:32;;;;;;;;;;;8.80;77.10;;;;;;4999529;28;88702;-44
2023/11/23 02:44:58;;;;;;;;;;;8.80;77.20;;;;;;4998242;28;87674;-44
2023/11/23 02:47:24;;;;;;;;;;;8.80;77.20;;;;;;5000028;28;87038;-43
2023/11/23 02:49:49;;;;;;;;;;;8.80;77.10;;;;;;5000477;28;87753;-44
2023/11/23 02:52:15;;;;;;;;;;;8.80;77.10;;;;;;5000747;28;87042;-43
2023/11/23 02:54:40;;;;;;;;;;;8.80;77.20;;;;;;4997807;28;86793;-44
2023/11/23 02:57:06;;;;;;;;;;;8.80;77.10;;;;;;4996879;28;88405;-43
2023/11/23 02:59:32;;;;;;;;;;;8.80;77.20;;;;;;4996170;28;88592;-44
2023/11/23 03:01:57;;;;;;;;;;;8.80;77.20;;;;;;4998202;28;87865;-43
2023/11/23 03:04:23;;;;;;;;;;;8.80;77.20;;;;;;5000711;28;87796;-45
2023/11/23 03:06:48;;;;;;;;;;;8.80;77.10;;;;;;4995130;28;87859;-44
2023/11/23 03:09:14;;;;;;;;;;;8.80;77.10;;;;;;4998264;28;87325;-45
2023/11/23 03:11:40;;;;;;;;;;;8.80;77.10;;;;;;5002275;28;87282;-44
2023/11/23 03:14:05;;;;;;;;;;;8.80;77.20;;;;;;5004004;28;88107;-45
2023/11/23 03:16:32;;;;;;;;;;;8.70;77.10;;;;;;4998465;28;88452;-45
2023/11/23 03:18:58;;;;;;;;;;;8.80;77.10;;;;;;4997959;28;86289;-43
2023/11/23 03:21:24;;;;;;;;;;;8.80;77.20;;;;;;4995314;28;87227;-44
2023/11/23 03:23:50;;;;;;;;;;;8.70;77.10;;;;;;4996079;28;88573;-44
2023/11/23 03:26:16;;;;;;;;;;;8.80;77.20;;;;;;4999561;28;87945;-44
2023/11/23 03:28:42;;;;;;;;;;;8.80;77.10;;;;;;4997185;28;87072;-45
2023/11/23 03:31:07;;;;;;;;;;;8.80;77.10;;;;;;4995650;28;87135;-44
2023/11/23 03:33:33;;;;;;;;;;;8.70;77.10;;;;;;4997970;28;86853;-44
2023/11/23 03:35:59;;;;;;;;;;;8.80;77.20;;;;;;4995595;28;87276;-44
2023/11/23 03:38:24;;;;;;;;;;;8.70;77.30;;;;;;5001513;28;86967;-44
2023/11/23 03:40:50;;;;;;;;;;;8.80;77.20;;;;;;5002991;28;87023;-44
2023/11/23 03:43:15;;;;;;;;;;;8.70;77.10;;;;;;4997673;28;87792;-44
2023/11/23 03:45:41;;;;;;;;;;;8.70;77.20;;;;;;5001942;28;86948;-44
2023/11/23 03:48:06;;;;;;;;;;;8.70;77.20;;;;;;5004262;28;87448;-43
2023/11/23 03:50:33;;;;;;;;;;;8.70;77.20;;;;;;4997725;28;88054;-45
2023/11/23 03:52:58;;;;;;;;;;;8.70;77.20;;;;;;5000982;28;89001;-44
2023/11/23 03:55:24;;;;;;;;;;;8.70;77.10;;;;;;4998779;28;87308;-43
2023/11/23 03:57:49;;;;;;;;;;;8.70;77.10;;;;;;5003173;28;86970;-44
2023/11/23 04:00:21;;;;;;;;;;;8.70;77.10;;;;;;5001467;28;89264;-44
2023/11/23 04:02:46;;;;;;;;;;;8.70;77.20;;;;;;5003225;28;88488;-44
2023/11/23 04:05:18;;;;;;;;;;;8.70;77.20;;;;;;5000710;28;86989;-44
2023/11/23 04:07:44;;;;;;;;;;;8.70;77.10;;;;;;5003253;28;86509;-43
2023/11/23 04:10:11;;;;;;;;;;;8.70;77.20;;;;;;5001214;28;87453;-44
2023/11/23 04:12:36;;;;;;;;;;;8.70;77.10;;;;;;4997625;28;88130;-44
2023/11/23 04:15:02;;;;;;;;;;;8.70;77.20;;;;;;5002421;28;88524;-44
2023/11/23 04:17:28;;;;;;;;;;;8.70;77.30;;;;;;4999264;28;86924;-44
2023/11/23 04:19:54;;;;;;;;;;;8.70;77.20;;;;;;5000311;28;87892;-44
2023/11/23 04:22:23;;;;;;;;;;;8.70;77.10;;;;;;5002158;28;88316;-43
2023/11/23 04:24:48;;;;;;;;;;;8.70;77.20;;;;;;5002520;28;87766;-44
2023/11/23 04:27:14;;;;;;;;;;;8.70;77.20;;;;;;4998623;28;87441;-44
2023/11/23 04:29:40;;;;;;;;;;;8.70;77.10;;;;;;5003306;28;87611;-44
2023/11/23 04:32:06;;;;;;;;;;;8.70;77.00;;;;;;5008021;28;86295;-43
2023/11/23 04:34:32;;;;;;;;;;;8.70;77.10;;;;;;5000404;28;88435;-44
2023/11/23 04:36:58;;;;;;;;;;;8.70;77.20;;;;;;4997234;28;87043;-44
2023/11/23 04:39:23;;;;;;;;;;;8.70;77.00;;;;;;4997137;28;87882;-45
2023/11/23 04:41:49;;;;;;;;;;;8.70;77.10;;;;;;5000510;28;87401;-44
2023/11/23 04:44:15;;;;;;;;;;;8.70;77.10;;;;;;4998503;28;87476;-44
2023/11/23 04:46:41;;;;;;;;;;;8.70;77.10;;;;;;4997669;28;87936;-43
2023/11/23 04:49:06;;;;;;;;;;;8.70;77.00;;;;;;4999503;28;87521;-43
2023/11/23 04:51:32;;;;;;;;;;;8.70;77.20;;;;;;5001309;28;86919;-45
2023/11/23 04:53:58;;;;;;;;;;;8.70;77.10;;;;;;4998830;28;87282;-44
2023/11/23 04:56:23;;;;;;;;;;;8.70;77.10;;;;;;4999558;28;86039;-43
2023/11/23 04:58:49;;;;;;;;;;;8.70;77.10;;;;;;4998765;28;87148;-44
2023/11/23 05:01:14;;;;;;;;;;;8.70;77.10;;;;;;4997645;28;86877;-44
2023/11/23 05:03:40;;;;;;;;;;;8.70;77.00;;;;;;4999919;28;87955;-44
2023/11/23 05:06:07;;;;;;;;;;;8.70;77.10;;;;;;5005191;28;88156;-44
2023/11/23 05:08:33;;;;;;;;;;;8.70;77.10;;;;;;4999392;28;88558;-44
2023/11/23 05:10:58;;;;;;;;;;;8.70;77.20;;;;;;5000398;28;86834;-43
2023/11/23 05:13:24;;;;;;;;;;;8.70;77.20;;;;;;5002619;28;87812;-44
2023/11/23 05:15:49;;;;;;;;;;;8.70;77.20;;;;;;4998400;28;87487;-43
2023/11/23 05:18:15;;;;;;;;;;;8.70;77.00;;;;;;4997277;28;86938;-44
2023/11/23 05:20:41;;;;;;;;;;;8.70;77.10;;;;;;5000477;28;86785;-44
2023/11/23 05:23:07;;;;;;;;;;;8.70;77.20;;;;;;5001539;28;87171;-43
2023/11/23 05:25:33;;;;;;;;;;;8.70;77.10;;;;;;4998751;28;87804;-44
2023/11/23 05:27:59;;;;;;;;;;;8.60;77.20;;;;;;4996957;28;89686;-44
2023/11/23 05:30:25;;;;;;;;;;;8.60;77.10;;;;;;4998218;28;86988;-43
2023/11/23 05:32:50;;;;;;;;;;;8.60;77.10;;;;;;4996274;28;87567;-43
2023/11/23 05:35:16;;;;;;;;;;;8.60;77.20;;;;;;5000719;28;87069;-44
2023/11/23 05:37:41;;;;;;;;;;;8.60;77.20;;;;;;4999121;28;87050;-44
2023/11/23 05:40:12;;;;;;;;;;;8.70;77.10;;;;;;4994811;28;87509;-43
2023/11/23 05:42:41;;;;;;;;;;;8.70;77.10;;;;;;4994712;28;87524;-43
2023/11/23 05:45:08;;;;;;;;;;;8.60;77.20;;;;;;4996464;28;88033;-43
2023/11/23 05:47:34;;;;;;;;;;;8.60;77.20;;;;;;4999581;28;88641;-44
2023/11/23 05:50:01;;;;;;;;;;;8.60;77.20;;;;;;4998455;28;87009;-43
2023/11/23 05:52:27;;;;;;;;;;;8.60;77.20;;;;;;4998684;28;88044;-43
2023/11/23 05:54:54;;;;;;;;;;;8.60;77.20;;;;;;4991498;28;89003;-43
2023/11/23 05:57:20;;;;;;;;;;;8.60;77.20;;;;;;5004602;28;86957;-44
2023/11/23 05:59:45;;;;;;;;;;;8.60;77.10;;;;;;4996012;28;87003;-43
2023/11/23 06:02:11;;;;;;;;;;;8.60;77.20;;;;;;4995651;28;88858;-44
2023/11/23 06:04:37;;;;;;;;;;;8.60;77.20;;;;;;4995013;28;86972;-44
2023/11/23 06:07:03;;;;;;;;;;;8.60;77.20;;;;;;5000300;28;88414;-43
2023/11/23 06:09:30;;;;;;;;;;;8.60;77.20;;;;;;5002854;28;86381;-44
2023/11/23 06:11:55;;;;;;;;;;;8.60;77.20;;;;;;4998783;28;87106;-44
2023/11/23 06:14:21;;;;;;;;;;;8.60;77.10;;;;;;4995342;28;87370;-44
2023/11/23 06:16:46;;;;;;;;;;;8.60;77.20;;;;;;4992018;28;88665;-45
2023/11/23 06:19:12;;;;;;;;;;;8.60;77.20;;;;;;4999699;28;88041;-44
2023/11/23 06:21:37;;;;;;;;;;;8.60;77.10;;;;;;5000520;28;87014;-44
2023/11/23 06:24:03;;;;;;;;;;;8.60;77.10;;;;;;4997265;28;86970;-45
2023/11/23 06:26:29;;;;;;;;;;;8.60;77.20;;;;;;5000646;28;88578;-43
2023/11/23 06:28:54;;;;;;;;;;;8.60;77.20;;;;;;4999580;28;86773;-43
2023/11/23 06:31:20;;;;;;;;;;;8.60;77.20;;;;;;5004244;28;87042;-44
2023/11/23 06:33:45;;;;;;;;;;;8.60;77.20;;;;;;4999450;28;86600;-44
2023/11/23 06:36:11;;;;;;;;;;;8.60;77.20;;;;;;4994855;28;87093;-44
2023/11/23 06:38:37;;;;;;;;;;;8.60;77.30;;;;;;4999505;28;86883;-43
2023/11/23 06:41:03;;;;;;;;;;;8.60;77.20;;;;;;5002090;28;88038;-44
2023/11/23 06:43:28;;;;;;;;;;;8.60;77.30;;;;;;4998696;28;87964;-44
2023/11/23 06:45:55;;;;;;;;;;;8.60;77.20;;;;;;4999510;28;87519;-43
2023/11/23 06:48:20;;;;;;;;;;;8.60;77.20;;;;;;5002231;28;86899;-45
2023/11/23 06:50:46;;;;;;;;;;;8.60;77.20;;;;;;4999945;28;86982;-43
2023/11/23 06:53:11;;;;;;;;;;;8.60;77.40;;;;;;4997901;28;88918;-43
2023/11/23 06:55:37;;;;;;;;;;;8.60;77.30;;;;;;5001626;28;87131;-45
2023/11/23 06:58:02;;;;;;;;;;;8.60;77.20;;;;;;4996184;28;86827;-43
2023/11/23 07:00:28;;;;;;;;;;;8.60;77.40;;;;;;5003080;28;87609;-43
2023/11/23 07:02:55;;;;;;;;;;;8.60;77.20;;;;;;4997185;28;87028;-43
2023/11/23 07:05:23;;;;;;;;;;;8.60;77.20;;;;;;4991334;28;89404;-43
2023/11/23 07:07:49;;;;;;;;;;;8.60;77.30;;;;;;5000719;28;87336;-45
2023/11/23 07:10:15;;;;;;;;;;;8.60;77.20;;;;;;4994364;28;87204;-44
2023/11/23 07:12:41;;;;;;;;;;;8.60;77.30;;;;;;4995565;28;87221;-43
2023/11/23 07:15:07;;;;;;;;;;;8.60;77.40;;;;;;4994033;28;87017;-45
2023/11/23 07:17:32;;;;;;;;;;;8.60;77.30;;;;;;4999385;28;87046;-44
2023/11/23 07:19:58;;;;;;;;;;;8.60;77.30;;;;;;4995045;28;87773;-44
2023/11/23 07:22:24;;;;;;;;;;;8.60;77.40;;;;;;5001898;28;86266;-44
2023/11/23 07:24:50;;;;;;;;;;;8.60;77.30;;;;;;4997881;28;88550;-44
2023/11/23 07:27:16;;;;;;;;;;;8.60;77.20;;;;;;4999177;28;87005;-44
2023/11/23 07:29:41;;;;;;;;;;;8.60;77.30;;;;;;4996991;28;88651;-43
2023/11/23 07:32:09;;;;;;;;;;;8.60;77.10;;;;;;4993868;28;88127;-43
2023/11/23 07:34:35;;;;;;;;;;;8.60;77.50;;;;;;4995952;28;86989;-43
2023/11/23 07:37:00;;;;;;;;;;;8.60;77.20;;;;;;4999414;28;87754;-44
2023/11/23 07:39:26;;;;;;;;;;;8.50;77.40;;;;;;4996093;28;88376;-43
2023/11/23 07:41:52;;;;;;;;;;;8.50;77.30;;;;;;5001044;28;87020;-45
2023/11/23 07:44:20;;;;;;;;;;;8.60;77.40;;;;;;5000964;28;86929;-45
2023/11/23 07:46:47;;;;;;;;;;;8.60;77.40;;;;;;4997942;28;86405;-44
2023/11/23 07:49:13;;;;;;;;;;;8.60;77.60;;;;;;4997619;28;87144;-44
2023/11/23 07:51:38;;;;;;;;;;;8.60;77.30;;;;;;4994248;28;86603;-44
2023/11/23 07:54:04;;;;;;;;;;;8.60;77.40;;;;;;4997524;28;87962;-43
2023/11/23 07:56:31;;;;;;;;;;;8.60;77.40;;;;;;4994416;28;88742;-44
2023/11/23 07:58:56;;;;;;;;;;;8.60;77.20;;;;;;4999961;28;87615;-44
2023/11/23 08:01:22;;;;;;;;;;;8.60;77.60;;;;;;4997685;28;87005;-44
2023/11/23 08:03:47;;;;;;;;;;;8.60;77.30;;;;;;4999583;28;87027;-44
2023/11/23 08:06:14;;;;;;;;;;;8.60;77.40;;;;;;4997712;28;88289;-43
2023/11/23 08:08:40;;;;;;;;;;;8.60;77.40;;;;;;4994687;28;88100;-44
2023/11/23 08:11:06;;;;;;;;;;;8.50;77.40;;;;;;4996205;28;86848;-43
2023/11/23 08:13:31;;;;;;;;;;;8.50;77.50;;;;;;4997100;28;87058;-43
2023/11/23 08:16:00;;;;;;;;;;;8.60;77.50;;;;;;4992785;28;87027;-43
2023/11/23 08:18:25;;;;;;;;;;;8.60;77.50;;;;;;4990673;28;89380;-44
2023/11/23 08:20:51;;;;;;;;;;;8.50;77.30;;;;;;4997155;28;86989;-43
2023/11/23 08:23:17;;;;;;;;;;;8.60;77.40;;;;;;4996688;28;87151;-44
2023/11/23 08:25:43;;;;;;;;;;;8.50;77.40;;;;;;4994767;28;87411;-43
2023/11/23 08:28:09;;;;;;;;;;;8.50;77.40;;;;;;4999919;28;88027;-43
2023/11/23 08:30:35;;;;;;;;;;;8.50;77.50;;;;;;5001112;28;87527;-44
2023/11/23 08:33:00;;;;;;;;;;;8.50;77.50;;;;;;4997455;28;86987;-44
2023/11/23 08:35:26;;;;;;;;;;;8.50;77.40;;;;;;4999672;28;86574;-44
2023/11/23 08:37:51;;;;;;;;;;;8.50;77.70;;;;;;5002397;28;87473;-44
2023/11/23 08:40:17;;;;;;;;;;;8.50;77.70;;;;;;5001112;28;87037;-44
2023/11/23 08:42:42;;;;;;;;;;;8.50;77.60;;;;;;4995665;28;88669;-43
2023/11/23 08:45:08;;;;;;;;;;;8.50;77.60;;;;;;4997823;28;88432;-44
2023/11/23 08:47:34;;;;;;;;;;;8.50;77.70;;;;;;5002906;28;86996;-44
2023/11/23 08:50:00;;;;;;;;;;;8.50;77.50;;;;;;5002754;28;88709;-45
2023/11/23 08:52:27;;;;;;;;;;;8.50;77.40;;;;;;4995872;28;87066;-44
2023/11/23 08:54:53;;;;;;;;;;;8.50;77.60;;;;;;4992510;28;86921;-45
2023/11/23 08:57:18;;;;;;;;;;;8.50;77.70;;;;;;4999288;28;86943;-44
2023/11/23 08:59:44;;;;;;;;;;;8.50;77.50;;;;;;5002078;28;87129;-43
2023/11/23 09:02:10;;;;;;;;;;;8.60;77.70;;;;;;4997349;28;88865;-43
2023/11/23 09:04:37;;;;;;;;;;;8.50;78.20;;;;;;5003046;28;87518;-45
2023/11/23 09:07:03;;;;;;;;;;;8.50;77.50;;;;;;5000857;28;87950;-44
2023/11/23 09:09:29;;;;;;;;;;;8.50;77.50;;;;;;5003732;28;88896;-44
2023/11/23 09:11:55;;;;;;;;;;;8.60;77.50;;;;;;5000950;28;87031;-44
2023/11/23 09:14:20;;;;;;;;;;;8.50;77.70;;;;;;4993253;28;88107;-44
2023/11/23 09:16:46;;;;;;;;;;;8.50;77.60;;;;;;5001096;28;87400;-44
2023/11/23 09:19:12;;;;;;;;;;;8.50;77.60;;;;;;4996791;28;88056;-43
2023/11/23 09:21:37;;;;;;;;;;;8.50;77.60;;;;;;4999076;28;88061;-43
2023/11/23 09:24:05;;;;;;;;;;;8.50;77.70;;;;;;5000423;28;86711;-44
2023/11/23 09:26:32;;;;;;;;;;;8.50;77.70;;;;;;5001896;28;87726;-44
2023/11/23 09:28:58;;;;;;;;;;;8.50;77.50;;;;;;4998656;28;88721;-43
2023/11/23 09:31:28;;;;;;;;;;;8.50;77.60;;;;;;4995964;28;88640;-43
2023/11/23 09:33:53;;;;;;;;;;;8.50;77.60;;;;;;4996118;28;88865;-43
2023/11/23 09:36:20;;;;;;;;;;;8.50;77.40;;;;;;4999562;28;88665;-44
2023/11/23 09:38:46;;;;;;;;;;;8.50;77.50;;;;;;4993351;28;86984;-45
2023/11/23 09:41:12;;;;;;;;;;;8.50;77.40;;;;;;5001716;28;87012;-44
2023/11/23 09:43:38;;;;;;;;;;;8.50;77.40;;;;;;5002400;28;88518;-44
2023/11/23 09:46:04;;;;;;;;;;;8.50;77.60;;;;;;4996797;28;87067;-43
2023/11/23 09:48:30;;;;;;;;;;;8.50;77.60;;;;;;4997711;28;87850;-44
2023/11/23 09:50:56;;;;;;;;;;;8.50;77.40;;;;;;4999613;28;87565;-44
2023/11/23 09:53:22;;;;;;;;;;;8.50;77.40;;;;;;5004834;28;87233;-43
2023/11/23 09:55:48;;;;;;;;;;;8.50;77.50;;;;;;4999223;28;89092;-43
2023/11/23 09:58:14;;;;;;;;;;;8.50;77.50;;;;;;4997357;28;88098;-43
2023/11/23 10:00:39;;;;;;;;;;;8.50;77.40;;;;;;4998308;28;87166;-44
2023/11/23 10:03:06;;;;;;;;;;;8.50;77.40;;;;;;4993101;28;87804;-43
2023/11/23 10:05:33;;;;;;;;;;;8.50;77.40;;;;;;5003895;28;87808;-44
2023/11/23 10:07:58;;;;;;;;;;;8.50;77.40;;;;;;4993074;28;87765;-43
2023/11/23 10:10:25;;;;;;;;;;;8.50;77.40;;;;;;5003445;28;87247;-44
2023/11/23 10:12:50;;;;;;;;;;;8.50;77.70;;;;;;4998968;28;86258;-44
2023/11/23 10:15:16;;;;;;;;;;;8.50;77.40;;;;;;5003481;28;87059;-43
2023/11/23 10:17:41;;;;;;;;;;;8.50;77.30;;;;;;4999521;28;86977;-44
2023/11/23 10:20:09;;;;;;;;;;;8.50;77.30;;;;;;4998142;28;87731;-44
2023/11/23 10:22:34;;;;;;;;;;;8.50;77.40;;;;;;4997087;28;88423;-44
2023/11/23 10:25:00;;;;;;;;;;;8.50;77.40;;;;;;4998692;28;87150;-44
2023/11/23 10:27:26;;;;;;;;;;;8.50;77.50;;;;;;4997488;28;87925;-43
2023/11/23 10:29:52;;;;;;;;;;;8.50;77.90;;;;;;4998804;28;88485;-43
2023/11/23 10:32:18;;;;;;;;;;;8.50;77.30;;;;;;4998542;28;88865;-43
2023/11/23 10:34:44;;;;;;;;;;;8.50;77.30;;;;;;4996765;28;87299;-44
2023/11/23 10:37:13;;;;;;;;;;;8.50;77.40;;;;;;5003930;28;86344;-44
2023/11/23 10:39:39;;;;;;;;;;;8.50;77.50;;;;;;4999047;28;86981;-44
2023/11/23 10:42:05;;;;;;;;;;;8.50;77.30;;;;;;5003560;28;87428;-43
2023/11/23 10:44:32;;;;;;;;;;;8.50;77.40;;;;;;4995703;28;89955;-44
2023/11/23 10:47:04;;;;;;;;;;;8.50;77.40;;;;;;5001807;28;87698;-44
2023/11/23 10:49:33;;;;;;;;;;;8.50;77.50;;;;;;4994872;28;87379;-44
2023/11/23 10:51:59;;;;;;;;;;;8.50;77.40;;;;;;4998201;28;87036;-44
2023/11/23 10:54:25;;;;;;;;;;;8.50;77.70;;;;;;4994875;28;87647;-45
2023/11/23 10:56:51;;;;;;;;;;;8.50;77.40;;;;;;4997108;28;87860;-44
2023/11/23 10:59:20;;;;;;;;;;;8.50;78.00;;;;;;4998252;28;87002;-44
2023/11/23 11:01:47;;;;;;;;;;;8.50;77.50;;;;;;4996122;28;87830;-43
2023/11/23 11:04:13;;;;;;;;;;;8.50;77.70;;;;;;4995586;28;87310;-44
2023/11/23 11:06:39;;;;;;;;;;;8.50;77.30;;;;;;4998940;28;87936;-43
2023/11/23 11:09:13;;;;;;;;;;;8.50;77.30;;;;;;5004346;28;91067;-43
2023/11/23 11:11:44;;;;;;;;;;;8.50;77.40;;;;;;4994153;28;88008;-45
2023/11/23 11:14:13;;;;;;;;;;;8.50;77.40;;;;;;4998399;28;88177;-43
2023/11/23 11:16:39;;;;;;;;;;;8.50;77.30;;;;;;4997352;28;89205;-43
2023/11/23 11:19:05;;;;;;;;;;;8.50;77.30;;;;;;5000862;28;87489;-44
2023/11/23 11:21:38;;;;;;;;;;;8.50;77.50;;;;;;4997987;28;88636;-44
2023/11/23 11:24:04;;;;;;;;;;;8.50;77.30;;;;;;4997520;28;87052;-43
2023/11/23 11:26:34;;;;;;;;;;;8.50;77.20;;;;;;4998070;28;86822;-43
2023/11/23 11:29:00;;;;;;;;;;;8.50;77.20;;;;;;4993019;28;88535;-46
2023/11/23 11:31:29;;;;;;;;;;;8.50;77.50;;;;;;4996100;28;87502;-43
2023/11/23 11:33:54;;;;;;;;;;;8.50;77.20;;;;;;4999193;28;89038;-44
2023/11/23 11:36:20;;;;;;;;;;;8.50;77.30;;;;;;4994406;28;86861;-43
2023/11/23 11:38:55;;;;;;;;;;;8.50;77.30;;;;;;4998197;28;87171;-44
2023/11/23 11:41:22;;;;;;;;;;;8.50;77.90;;;;;;4996866;28;87074;-43
2023/11/23 11:43:47;;;;;;;;;;;8.50;77.40;;;;;;4998112;28;87018;-45
2023/11/23 11:46:13;;;;;;;;;;;8.50;77.40;;;;;;4998132;28;86881;-44
2023/11/23 11:48:38;;;;;;;;;;;8.50;77.30;;;;;;4996323;28;87486;-44
2023/11/23 11:51:05;;;;;;;;;;;8.50;77.20;;;;;;4995254;28;86362;-44
2023/11/23 11:53:31;;;;;;;;;;;8.50;77.30;;;;;;4998677;28;87067;-44
2023/11/23 11:55:57;;;;;;;;;;;8.50;77.20;;;;;;4997858;28;88260;-43
2023/11/23 11:58:23;;;;;;;;;;;8.50;77.20;;;;;;4994603;28;87948;-43
2023/11/23 12:00:48;;;;;;;;;;;8.50;77.20;;;;;;4998861;28;87626;-44
2023/11/23 12:03:14;;;;;;;;;;;8.50;77.20;;;;;;5003673;28;88553;-44
2023/11/23 12:05:43;;;;;;;;;;;8.50;77.30;;;;;;5005658;28;86974;-44
2023/11/23 12:08:11;;;;;;;;;;;8.50;77.30;;;;;;4996033;28;88434;-43
2023/11/23 12:10:39;;;;;;;;;;;8.50;77.20;;;;;;4998932;28;87708;-43
2023/11/23 12:13:06;;;;;;;;;;;8.50;77.20;;;;;;5002538;28;87724;-44
2023/11/23 12:15:32;;;;;;;;;;;8.50;77.20;;;;;;4999063;28;87737;-44
2023/11/23 12:17:58;;;;;;;;;;;8.50;77.40;;;;;;4997589;28;87231;-43
2023/11/23 12:20:34;;;;;;;;;;;8.50;77.30;;;;;;4996831;28;88002;-43
2023/11/23 12:23:03;;;;;;;;;;;8.50;77.30;;;;;;5000534;28;88285;-44
2023/11/23 12:25:28;;;;;;;;;;;8.50;77.30;;;;;;5001937;28;88583;-44
2023/11/23 12:27:55;;;;;;;;;;;8.50;77.10;;;;;;4996782;28;87518;-43
2023/11/23 12:30:23;;;;;;;;;;;8.60;77.30;;;;;;4995344;28;87217;-44
2023/11/23 12:32:48;;;;;;;;;;;8.50;77.30;;;;;;5003822;28;88107;-44
2023/11/23 12:35:14;;;;;;;;;;;8.50;77.40;;;;;;4996194;28;87567;-43
2023/11/23 12:37:39;;;;;;;;;;;8.60;77.30;;;;;;5000310;28;87810;-44
2023/11/23 12:40:09;;;;;;;;;;;8.60;77.50;;;;;;4994338;28;87093;-44
2023/11/23 12:42:35;;;;;;;;;;;8.50;77.40;;;;;;5000386;28;88539;-44
2023/11/23 12:45:02;;;;;;;;;;;8.50;77.30;;;;;;4999363;28;86943;-42
2023/11/23 12:47:28;;;;;;;;;;;8.50;77.40;;;;;;4997612;28;89399;-43
2023/11/23 12:49:54;;;;;;;;;;;8.50;77.30;;;;;;5003454;28;86956;-43
2023/11/23 12:52:19;;;;;;;;;;;8.50;77.30;;;;;;5004721;28;87115;-44
2023/11/23 12:54:45;;;;;;;;;;;8.50;77.30;;;;;;4998934;28;87410;-43
2023/11/23 12:57:12;;;;;;;;;;;8.50;77.30;;;;;;5002943;28;86795;-44
2023/11/23 12:59:37;;;;;;;;;;;8.50;77.40;;;;;;5002117;28;88423;-44
2023/11/23 13:02:03;;;;;;;;;;;8.60;77.30;;;;;;5001223;28;87817;-44
2023/11/23 13:04:29;;;;;;;;;;;8.50;77.30;;;;;;4993957;28;87079;-43
2023/11/23 13:06:58;;;;;;;;;;;8.50;77.50;;;;;;5001682;28;87432;-42
2023/11/23 13:09:23;;;;;;;;;;;8.50;77.40;;;;;;4999408;28;87459;-44
2023/11/23 13:11:49;;;;;;;;;;;8.50;77.40;;;;;;4996782;28;88372;-43
2023/11/23 13:14:15;;;;;;;;;;;8.50;77.40;;;;;;4997839;28;87454;-43
2023/11/23 13:16:42;;;;;;;;;;;8.50;77.40;;;;;;4993860;28;86868;-43
2023/11/23 13:19:07;;;;;;;;;;;8.50;77.40;;;;;;4996332;28;87901;-44
2023/11/23 13:21:36;;;;;;;;;;;8.60;77.50;;;;;;4993117;28;88766;-44
2023/11/23 13:24:04;;;;;;;;;;;8.50;77.40;;;;;;4997230;28;87184;-44
2023/11/23 13:26:30;;;;;;;;;;;8.50;77.50;;;;;;5001766;28;87980;-43
2023/11/23 13:28:57;;;;;;;;;;;8.50;77.30;;;;;;4998804;28;86731;-43
2023/11/23 13:31:23;;;;;;;;;;;8.50;77.30;;;;;;5000567;28;87195;-44
2023/11/23 13:33:49;;;;;;;;;;;8.50;77.40;;;;;;4998419;28;88596;-44
2023/11/23 13:36:15;;;;;;;;;;;8.50;77.40;;;;;;4996586;28;88233;-44
2023/11/23 13:38:40;;;;;;;;;;;8.60;77.40;;;;;;5002517;28;87695;-44
2023/11/23 13:41:07;;;;;;;;;;;8.50;77.30;;;;;;4992802;28;87508;-44
2023/11/23 13:43:34;;;;;;;;;;;8.50;77.40;;;;;;4995288;28;86900;-44
2023/11/23 13:46:00;;;;;;;;;;;8.50;77.40;;;;;;4999692;28;87813;-43
2023/11/23 13:48:27;;;;;;;;;;;8.60;77.50;;;;;;4997254;28;88906;-43
2023/11/23 13:50:54;;;;;;;;;;;8.50;77.20;;;;;;4997632;28;87070;-44
2023/11/23 13:53:20;;;;;;;;;;;8.50;77.30;;;;;;5000185;28;87863;-44
2023/11/23 13:55:46;;;;;;;;;;;8.60;77.40;;;;;;4999724;28;87070;-43
2023/11/23 13:58:12;;;;;;;;;;;8.50;77.40;;;;;;4999350;28;88528;-44
2023/11/23 14:00:38;;;;;;;;;;;8.50;77.40;;;;;;4994319;28;89453;-43
2023/11/23 14:03:04;;;;;;;;;;;8.50;77.40;;;;;;4995181;28;86855;-43
2023/11/23 14:05:30;;;;;;;;;;;8.50;77.30;;;;;;4998165;28;87070;-44
2023/11/23 14:07:56;;;;;;;;;;;8.50;77.40;;;;;;4999828;28;88570;-43
2023/11/23 14:10:21;;;;;;;;;;;8.50;77.50;;;;;;5001923;28;87268;-44
2023/11/23 14:12:47;;;;;;;;;;;8.50;77.40;;;;;;4997625;28;87019;-44
2023/11/23 14:15:19;;;;;;;;;;;8.50;77.50;;;;;;5003083;28;87051;-44
2023/11/23 14:17:47;;;;;;;;;;;8.50;77.30;;;;;;4998681;28;87016;-44
2023/11/23 14:20:16;;;;;;;;;;;8.50;77.40;;;;;;4994826;28;87291;-44
2023/11/23 14:22:45;;;;;;;;;;;8.50;77.40;;;;;;4997679;28;86971;-44
2023/11/23 14:25:16;;;;;;;;;;;8.50;77.40;;;;;;4997988;28;88048;-43